sensor_id;sensor_type;location;lat;lon;timestamp;P1;durP1;ratioP1;P2;durP2;ratioP2
69150;SDS011;56257;52.196;13.870;2022-09-25T00:00:49;9.95;;;7.07;;
69150;SDS011;56257;52.196;13.870;2022-09-25T00:03:17;9.65;;;7.15;;
69150;SDS011;56257;52.196;13.870;2022-09-25T00:05:45;8.50;;;6.68;;
69150;SDS011;56257;52.196;13.870;2022-09-25T00:08:13;10.05;;;7.05;;
69150;SDS011;56257;52.196;13.870;2022-09-25T00:10:44;10.07;;;7.50;;
69150;SDS011;56257;52.196;13.870;2022-09-25T00:13:13;9.18;;;6.50;;
69150;SDS011;56257;52.196;13.870;2022-09-25T00:15:47;8.63;;;6.97;;
69150;SDS011;56257;52.196;13.870;2022-09-25T00:18:21;8.80;;;6.80;;
69150;SDS011;56257;52.196;13.870;2022-09-25T00:21:08;8.88;;;6.70;;
69150;SDS011;56257;52.196;13.870;2022-09-25T00:23:38;8.80;;;6.60;;
69150;SDS011;56257;52.196;13.870;2022-09-25T00:26:06;8.38;;;6.68;;
69150;SDS011;56257;52.196;13.870;2022-09-25T00:28:37;9.23;;;6.78;;
69150;SDS011;56257;52.196;13.870;2022-09-25T00:31:05;9.90;;;7.15;;
69150;SDS011;56257;52.196;13.870;2022-09-25T00:33:32;8.77;;;7.28;;
69150;SDS011;56257;52.196;13.870;2022-09-25T00:36:03;9.23;;;6.53;;
69150;SDS011;56257;52.196;13.870;2022-09-25T00:38:32;8.10;;;6.28;;
69150;SDS011;56257;52.196;13.870;2022-09-25T00:41:00;9.02;;;6.47;;
69150;SDS011;56257;52.196;13.870;2022-09-25T00:43:33;11.27;;;6.70;;
69150;SDS011;56257;52.196;13.870;2022-09-25T00:46:00;8.23;;;6.20;;
69150;SDS011;56257;52.196;13.870;2022-09-25T00:48:28;8.47;;;6.70;;
69150;SDS011;56257;52.196;13.870;2022-09-25T00:50:56;9.15;;;6.80;;
69150;SDS011;56257;52.196;13.870;2022-09-25T00:53:28;9.20;;;6.50;;
69150;SDS011;56257;52.196;13.870;2022-09-25T00:55:58;8.63;;;6.47;;
69150;SDS011;56257;52.196;13.870;2022-09-25T00:58:26;8.30;;;6.28;;
69150;SDS011;56257;52.196;13.870;2022-09-25T01:00:55;8.30;;;6.13;;
69150;SDS011;56257;52.196;13.870;2022-09-25T01:03:22;8.93;;;6.63;;
69150;SDS011;56257;52.196;13.870;2022-09-25T01:05:48;8.43;;;6.25;;
69150;SDS011;56257;52.196;13.870;2022-09-25T01:08:19;9.30;;;6.50;;
69150;SDS011;56257;52.196;13.870;2022-09-25T01:10:48;7.88;;;6.05;;
69150;SDS011;56257;52.196;13.870;2022-09-25T01:13:14;7.83;;;6.03;;
69150;SDS011;56257;52.196;13.870;2022-09-25T01:15:58;8.68;;;6.57;;
69150;SDS011;56257;52.196;13.870;2022-09-25T01:30:17;8.45;;;6.00;;
69150;SDS011;56257;52.196;13.870;2022-09-25T01:35:26;8.32;;;6.65;;
69150;SDS011;56257;52.196;13.870;2022-09-25T01:41:15;7.97;;;6.47;;
69150;SDS011;56257;52.196;13.870;2022-09-25T01:43:48;9.20;;;6.25;;
69150;SDS011;56257;52.196;13.870;2022-09-25T01:46:29;8.25;;;6.25;;
69150;SDS011;56257;52.196;13.870;2022-09-25T01:49:34;8.80;;;6.30;;
69150;SDS011;56257;52.196;13.870;2022-09-25T01:51:55;8.13;;;6.40;;
69150;SDS011;56257;52.196;13.870;2022-09-25T01:54:27;8.33;;;6.60;;
69150;SDS011;56257;52.196;13.870;2022-09-25T01:57:05;7.85;;;5.97;;
69150;SDS011;56257;52.196;13.870;2022-09-25T02:00:00;8.20;;;6.43;;
69150;SDS011;56257;52.196;13.870;2022-09-25T02:02:36;7.53;;;6.05;;
69150;SDS011;56257;52.196;13.870;2022-09-25T02:05:19;8.15;;;5.85;;
69150;SDS011;56257;52.196;13.870;2022-09-25T02:07:50;9.77;;;6.50;;
69150;SDS011;56257;52.196;13.870;2022-09-25T02:10:34;11.00;;;6.60;;
69150;SDS011;56257;52.196;13.870;2022-09-25T02:13:10;9.93;;;6.68;;
69150;SDS011;56257;52.196;13.870;2022-09-25T02:15:39;8.73;;;7.10;;
69150;SDS011;56257;52.196;13.870;2022-09-25T02:18:13;12.45;;;7.10;;
69150;SDS011;56257;52.196;13.870;2022-09-25T02:23:51;7.18;;;5.93;;
69150;SDS011;56257;52.196;13.870;2022-09-25T02:26:25;10.05;;;6.60;;
69150;SDS011;56257;52.196;13.870;2022-09-25T02:28:53;8.57;;;6.50;;
69150;SDS011;56257;52.196;13.870;2022-09-25T02:31:21;8.70;;;6.25;;
69150;SDS011;56257;52.196;13.870;2022-09-25T02:33:50;8.20;;;6.20;;
69150;SDS011;56257;52.196;13.870;2022-09-25T02:36:17;8.30;;;6.35;;
69150;SDS011;56257;52.196;13.870;2022-09-25T02:38:45;10.52;;;8.35;;
69150;SDS011;56257;52.196;13.870;2022-09-25T02:49:55;9.43;;;7.07;;
69150;SDS011;56257;52.196;13.870;2022-09-25T02:52:35;8.77;;;6.93;;
69150;SDS011;56257;52.196;13.870;2022-09-25T02:55:11;10.85;;;7.13;;
69150;SDS011;56257;52.196;13.870;2022-09-25T02:57:54;9.95;;;8.00;;
69150;SDS011;56257;52.196;13.870;2022-09-25T03:00:23;10.17;;;7.23;;
69150;SDS011;56257;52.196;13.870;2022-09-25T03:02:50;11.18;;;7.70;;
69150;SDS011;56257;52.196;13.870;2022-09-25T03:05:21;11.07;;;7.80;;
69150;SDS011;56257;52.196;13.870;2022-09-25T03:07:49;9.90;;;7.13;;
69150;SDS011;56257;52.196;13.870;2022-09-25T03:10:34;10.05;;;7.13;;
69150;SDS011;56257;52.196;13.870;2022-09-25T03:13:16;10.60;;;7.00;;
69150;SDS011;56257;52.196;13.870;2022-09-25T03:15:52;10.85;;;8.00;;
69150;SDS011;56257;52.196;13.870;2022-09-25T03:18:21;12.27;;;8.80;;
69150;SDS011;56257;52.196;13.870;2022-09-25T03:20:48;12.90;;;8.60;;
69150;SDS011;56257;52.196;13.870;2022-09-25T03:23:15;11.65;;;8.30;;
69150;SDS011;56257;52.196;13.870;2022-09-25T03:25:42;10.27;;;7.73;;
69150;SDS011;56257;52.196;13.870;2022-09-25T03:28:15;11.65;;;7.72;;
69150;SDS011;56257;52.196;13.870;2022-09-25T03:30:41;10.57;;;7.60;;
69150;SDS011;56257;52.196;13.870;2022-09-25T03:33:09;10.57;;;7.15;;
69150;SDS011;56257;52.196;13.870;2022-09-25T03:35:37;11.20;;;8.00;;
69150;SDS011;56257;52.196;13.870;2022-09-25T03:38:04;9.77;;;7.07;;
69150;SDS011;56257;52.196;13.870;2022-09-25T03:40:33;9.50;;;6.85;;
69150;SDS011;56257;52.196;13.870;2022-09-25T03:43:00;11.52;;;7.85;;
69150;SDS011;56257;52.196;13.870;2022-09-25T03:45:27;10.27;;;7.68;;
69150;SDS011;56257;52.196;13.870;2022-09-25T03:47:53;10.63;;;7.35;;
69150;SDS011;56257;52.196;13.870;2022-09-25T03:50:20;10.40;;;7.50;;
69150;SDS011;56257;52.196;13.870;2022-09-25T03:52:47;11.75;;;6.90;;
69150;SDS011;56257;52.196;13.870;2022-09-25T03:55:13;13.02;;;8.30;;
69150;SDS011;56257;52.196;13.870;2022-09-25T03:57:40;12.02;;;7.47;;
69150;SDS011;56257;52.196;13.870;2022-09-25T04:00:07;14.88;;;7.88;;
69150;SDS011;56257;52.196;13.870;2022-09-25T04:02:34;10.43;;;7.60;;
69150;SDS011;56257;52.196;13.870;2022-09-25T04:05:01;10.20;;;7.85;;
69150;SDS011;56257;52.196;13.870;2022-09-25T04:07:29;10.63;;;7.15;;
69150;SDS011;56257;52.196;13.870;2022-09-25T04:09:55;10.15;;;7.20;;
69150;SDS011;56257;52.196;13.870;2022-09-25T04:12:22;11.02;;;7.70;;
69150;SDS011;56257;52.196;13.870;2022-09-25T04:14:49;9.47;;;6.60;;
69150;SDS011;56257;52.196;13.870;2022-09-25T04:17:16;10.80;;;7.38;;
69150;SDS011;56257;52.196;13.870;2022-09-25T04:19:42;9.43;;;6.65;;
69150;SDS011;56257;52.196;13.870;2022-09-25T04:22:09;9.52;;;6.65;;
69150;SDS011;56257;52.196;13.870;2022-09-25T04:24:36;10.27;;;7.13;;
69150;SDS011;56257;52.196;13.870;2022-09-25T04:27:15;8.70;;;6.43;;
69150;SDS011;56257;52.196;13.870;2022-09-25T04:29:44;10.55;;;7.07;;
69150;SDS011;56257;52.196;13.870;2022-09-25T04:32:12;9.25;;;6.65;;
69150;SDS011;56257;52.196;13.870;2022-09-25T04:34:58;10.32;;;7.00;;
69150;SDS011;56257;52.196;13.870;2022-09-25T04:37:25;9.45;;;6.88;;
69150;SDS011;56257;52.196;13.870;2022-09-25T04:39:52;9.93;;;6.67;;
69150;SDS011;56257;52.196;13.870;2022-09-25T04:42:19;10.00;;;6.60;;
69150;SDS011;56257;52.196;13.870;2022-09-25T04:44:53;9.10;;;6.70;;
69150;SDS011;56257;52.196;13.870;2022-09-25T04:47:21;8.68;;;6.50;;
69150;SDS011;56257;52.196;13.870;2022-09-25T04:49:48;9.70;;;6.70;;
69150;SDS011;56257;52.196;13.870;2022-09-25T04:52:16;8.77;;;6.27;;
69150;SDS011;56257;52.196;13.870;2022-09-25T04:54:44;9.32;;;6.20;;
69150;SDS011;56257;52.196;13.870;2022-09-25T04:57:15;10.93;;;6.38;;
69150;SDS011;56257;52.196;13.870;2022-09-25T05:00:03;8.48;;;6.35;;
69150;SDS011;56257;52.196;13.870;2022-09-25T05:02:31;10.13;;;6.50;;
69150;SDS011;56257;52.196;13.870;2022-09-25T05:04:58;8.50;;;6.10;;
69150;SDS011;56257;52.196;13.870;2022-09-25T05:07:24;9.13;;;6.65;;
69150;SDS011;56257;52.196;13.870;2022-09-25T05:09:51;10.18;;;6.70;;
69150;SDS011;56257;52.196;13.870;2022-09-25T05:12:17;8.98;;;6.68;;
69150;SDS011;56257;52.196;13.870;2022-09-25T05:14:45;10.40;;;6.75;;
69150;SDS011;56257;52.196;13.870;2022-09-25T05:17:11;9.37;;;6.50;;
69150;SDS011;56257;52.196;13.870;2022-09-25T05:19:38;10.00;;;6.85;;
69150;SDS011;56257;52.196;13.870;2022-09-25T05:22:05;10.95;;;7.05;;
69150;SDS011;56257;52.196;13.870;2022-09-25T05:24:31;9.15;;;6.90;;
69150;SDS011;56257;52.196;13.870;2022-09-25T05:26:58;9.35;;;6.55;;
69150;SDS011;56257;52.196;13.870;2022-09-25T05:29:25;9.23;;;7.03;;
69150;SDS011;56257;52.196;13.870;2022-09-25T05:31:52;9.85;;;6.50;;
69150;SDS011;56257;52.196;13.870;2022-09-25T05:34:18;9.30;;;6.47;;
69150;SDS011;56257;52.196;13.870;2022-09-25T05:36:46;7.90;;;6.10;;
69150;SDS011;56257;52.196;13.870;2022-09-25T05:39:12;8.38;;;6.00;;
69150;SDS011;56257;52.196;13.870;2022-09-25T05:41:40;8.80;;;6.00;;
69150;SDS011;56257;52.196;13.870;2022-09-25T05:44:06;7.55;;;6.07;;
69150;SDS011;56257;52.196;13.870;2022-09-25T05:46:35;10.02;;;6.82;;
69150;SDS011;56257;52.196;13.870;2022-09-25T05:49:02;9.52;;;6.60;;
69150;SDS011;56257;52.196;13.870;2022-09-25T05:51:29;8.98;;;6.90;;
69150;SDS011;56257;52.196;13.870;2022-09-25T05:53:56;9.53;;;6.73;;
69150;SDS011;56257;52.196;13.870;2022-09-25T05:56:23;10.18;;;6.80;;
69150;SDS011;56257;52.196;13.870;2022-09-25T05:58:50;9.77;;;6.57;;
69150;SDS011;56257;52.196;13.870;2022-09-25T06:01:18;11.25;;;7.00;;
69150;SDS011;56257;52.196;13.870;2022-09-25T06:03:44;9.10;;;6.47;;
69150;SDS011;56257;52.196;13.870;2022-09-25T06:06:11;8.80;;;6.53;;
69150;SDS011;56257;52.196;13.870;2022-09-25T06:08:38;10.32;;;6.63;;
69150;SDS011;56257;52.196;13.870;2022-09-25T06:11:05;9.45;;;6.35;;
69150;SDS011;56257;52.196;13.870;2022-09-25T06:13:33;8.38;;;6.32;;
69150;SDS011;56257;52.196;13.870;2022-09-25T06:16:02;9.05;;;6.47;;
69150;SDS011;56257;52.196;13.870;2022-09-25T06:18:31;9.50;;;6.63;;
69150;SDS011;56257;52.196;13.870;2022-09-25T06:21:02;8.65;;;6.32;;
69150;SDS011;56257;52.196;13.870;2022-09-25T06:23:30;9.68;;;6.45;;
69150;SDS011;56257;52.196;13.870;2022-09-25T06:26:01;9.18;;;6.65;;
69150;SDS011;56257;52.196;13.870;2022-09-25T06:28:28;8.68;;;6.35;;
69150;SDS011;56257;52.196;13.870;2022-09-25T06:30:58;8.70;;;6.03;;
69150;SDS011;56257;52.196;13.870;2022-09-25T06:33:29;9.57;;;6.22;;
69150;SDS011;56257;52.196;13.870;2022-09-25T06:35:56;9.57;;;6.55;;
69150;SDS011;56257;52.196;13.870;2022-09-25T06:38:22;9.57;;;6.90;;
69150;SDS011;56257;52.196;13.870;2022-09-25T06:40:50;8.95;;;6.28;;
69150;SDS011;56257;52.196;13.870;2022-09-25T06:43:17;9.17;;;6.30;;
69150;SDS011;56257;52.196;13.870;2022-09-25T06:45:43;8.15;;;5.82;;
69150;SDS011;56257;52.196;13.870;2022-09-25T06:48:13;8.23;;;6.22;;
69150;SDS011;56257;52.196;13.870;2022-09-25T06:53:14;9.88;;;7.10;;
69150;SDS011;56257;52.196;13.870;2022-09-25T06:55:41;9.07;;;7.00;;
69150;SDS011;56257;52.196;13.870;2022-09-25T06:58:13;10.88;;;7.32;;
69150;SDS011;56257;52.196;13.870;2022-09-25T07:00:49;10.23;;;7.05;;
69150;SDS011;56257;52.196;13.870;2022-09-25T07:03:17;9.57;;;7.32;;
69150;SDS011;56257;52.196;13.870;2022-09-25T07:06:03;10.98;;;7.88;;
69150;SDS011;56257;52.196;13.870;2022-09-25T07:08:31;10.13;;;7.23;;
69150;SDS011;56257;52.196;13.870;2022-09-25T07:10:58;10.95;;;7.30;;
69150;SDS011;56257;52.196;13.870;2022-09-25T07:13:26;9.95;;;7.35;;
69150;SDS011;56257;52.196;13.870;2022-09-25T07:15:55;10.32;;;7.35;;
69150;SDS011;56257;52.196;13.870;2022-09-25T07:18:24;10.05;;;7.63;;
69150;SDS011;56257;52.196;13.870;2022-09-25T07:20:51;11.03;;;8.17;;
69150;SDS011;56257;52.196;13.870;2022-09-25T07:23:19;10.60;;;7.18;;
69150;SDS011;56257;52.196;13.870;2022-09-25T07:25:48;9.73;;;7.25;;
69150;SDS011;56257;52.196;13.870;2022-09-25T07:28:15;8.73;;;6.78;;
69150;SDS011;56257;52.196;13.870;2022-09-25T07:30:44;10.50;;;7.93;;
69150;SDS011;56257;52.196;13.870;2022-09-25T07:33:11;11.33;;;8.00;;
69150;SDS011;56257;52.196;13.870;2022-09-25T07:35:38;12.10;;;7.90;;
69150;SDS011;56257;52.196;13.870;2022-09-25T07:38:05;10.10;;;7.50;;
69150;SDS011;56257;52.196;13.870;2022-09-25T07:40:31;11.68;;;7.80;;
69150;SDS011;56257;52.196;13.870;2022-09-25T07:43:01;9.95;;;7.50;;
69150;SDS011;56257;52.196;13.870;2022-09-25T07:45:28;10.73;;;7.43;;
69150;SDS011;56257;52.196;13.870;2022-09-25T07:47:58;10.05;;;7.18;;
69150;SDS011;56257;52.196;13.870;2022-09-25T07:50:26;11.63;;;7.82;;
69150;SDS011;56257;52.196;13.870;2022-09-25T07:52:54;9.65;;;7.60;;
69150;SDS011;56257;52.196;13.870;2022-09-25T07:55:20;10.07;;;7.60;;
69150;SDS011;56257;52.196;13.870;2022-09-25T07:57:48;9.70;;;7.50;;
69150;SDS011;56257;52.196;13.870;2022-09-25T08:00:15;10.45;;;7.15;;
69150;SDS011;56257;52.196;13.870;2022-09-25T08:02:42;10.82;;;7.50;;
69150;SDS011;56257;52.196;13.870;2022-09-25T08:05:09;11.55;;;7.43;;
69150;SDS011;56257;52.196;13.870;2022-09-25T08:07:37;11.07;;;7.80;;
69150;SDS011;56257;52.196;13.870;2022-09-25T08:10:03;10.50;;;7.43;;
69150;SDS011;56257;52.196;13.870;2022-09-25T08:12:31;10.55;;;7.38;;
69150;SDS011;56257;52.196;13.870;2022-09-25T08:14:58;9.82;;;7.63;;
69150;SDS011;56257;52.196;13.870;2022-09-25T08:17:26;14.50;;;7.97;;
69150;SDS011;56257;52.196;13.870;2022-09-25T08:19:56;11.27;;;7.97;;
69150;SDS011;56257;52.196;13.870;2022-09-25T08:22:23;10.30;;;7.50;;
69150;SDS011;56257;52.196;13.870;2022-09-25T08:24:50;12.27;;;7.72;;
69150;SDS011;56257;52.196;13.870;2022-09-25T08:27:17;12.10;;;7.90;;
69150;SDS011;56257;52.196;13.870;2022-09-25T08:29:44;10.95;;;7.88;;
69150;SDS011;56257;52.196;13.870;2022-09-25T08:32:11;11.95;;;8.35;;
69150;SDS011;56257;52.196;13.870;2022-09-25T08:34:38;13.23;;;8.17;;
69150;SDS011;56257;52.196;13.870;2022-09-25T08:37:07;11.57;;;7.95;;
69150;SDS011;56257;52.196;13.870;2022-09-25T08:39:35;11.43;;;8.40;;
69150;SDS011;56257;52.196;13.870;2022-09-25T08:42:02;10.60;;;8.20;;
69150;SDS011;56257;52.196;13.870;2022-09-25T08:44:35;12.05;;;8.02;;
69150;SDS011;56257;52.196;13.870;2022-09-25T08:47:05;11.93;;;7.80;;
69150;SDS011;56257;52.196;13.870;2022-09-25T08:50:11;11.57;;;7.80;;
69150;SDS011;56257;52.196;13.870;2022-09-25T08:52:47;11.45;;;8.40;;
69150;SDS011;56257;52.196;13.870;2022-09-25T08:55:34;10.15;;;7.93;;
69150;SDS011;56257;52.196;13.870;2022-09-25T08:58:26;12.02;;;8.50;;
69150;SDS011;56257;52.196;13.870;2022-09-25T09:00:56;14.00;;;8.50;;
69150;SDS011;56257;52.196;13.870;2022-09-25T09:03:26;11.00;;;8.43;;
69150;SDS011;56257;52.196;13.870;2022-09-25T09:05:56;10.73;;;8.63;;
69150;SDS011;56257;52.196;13.870;2022-09-25T09:08:31;13.57;;;8.80;;
69150;SDS011;56257;52.196;13.870;2022-09-25T09:11:01;11.35;;;8.10;;
69150;SDS011;56257;52.196;13.870;2022-09-25T09:19:25;12.05;;;8.30;;
69150;SDS011;56257;52.196;13.870;2022-09-25T09:28:06;12.67;;;7.67;;
69150;SDS011;56257;52.196;13.870;2022-09-25T09:41:52;11.77;;;8.00;;
69150;SDS011;56257;52.196;13.870;2022-09-25T09:52:57;10.07;;;7.82;;
69150;SDS011;56257;52.196;13.870;2022-09-25T09:58:14;10.30;;;8.02;;
69150;SDS011;56257;52.196;13.870;2022-09-25T10:00:48;11.55;;;7.80;;
69150;SDS011;56257;52.196;13.870;2022-09-25T10:03:22;10.93;;;7.70;;
69150;SDS011;56257;52.196;13.870;2022-09-25T10:05:55;11.45;;;7.93;;
69150;SDS011;56257;52.196;13.870;2022-09-25T10:08:23;11.23;;;7.50;;
69150;SDS011;56257;52.196;13.870;2022-09-25T10:10:51;10.20;;;7.78;;
69150;SDS011;56257;52.196;13.870;2022-09-25T10:15:58;10.25;;;7.63;;
69150;SDS011;56257;52.196;13.870;2022-09-25T10:18:30;11.00;;;7.90;;
69150;SDS011;56257;52.196;13.870;2022-09-25T10:23:38;11.63;;;7.90;;
69150;SDS011;56257;52.196;13.870;2022-09-25T10:26:24;9.60;;;7.13;;
69150;SDS011;56257;52.196;13.870;2022-09-25T10:28:56;10.73;;;6.88;;
69150;SDS011;56257;52.196;13.870;2022-09-25T10:31:25;10.68;;;7.30;;
69150;SDS011;56257;52.196;13.870;2022-09-25T10:36:33;10.00;;;7.20;;
69150;SDS011;56257;52.196;13.870;2022-09-25T10:39:03;13.85;;;7.05;;
69150;SDS011;56257;52.196;13.870;2022-09-25T10:41:50;10.55;;;7.18;;
69150;SDS011;56257;52.196;13.870;2022-09-25T10:44:21;10.40;;;7.18;;
69150;SDS011;56257;52.196;13.870;2022-09-25T10:47:25;10.53;;;7.60;;
69150;SDS011;56257;52.196;13.870;2022-09-25T10:55:29;10.10;;;7.00;;
69150;SDS011;56257;52.196;13.870;2022-09-25T11:00:29;10.93;;;7.43;;
69150;SDS011;56257;52.196;13.870;2022-09-25T11:03:03;11.65;;;8.35;;
69150;SDS011;56257;52.196;13.870;2022-09-25T11:05:32;9.75;;;7.03;;
69150;SDS011;56257;52.196;13.870;2022-09-25T11:08:04;10.18;;;7.18;;
69150;SDS011;56257;52.196;13.870;2022-09-25T11:10:33;10.27;;;7.30;;
69150;SDS011;56257;52.196;13.870;2022-09-25T11:13:07;9.37;;;6.97;;
69150;SDS011;56257;52.196;13.870;2022-09-25T11:15:35;9.90;;;7.35;;
69150;SDS011;56257;52.196;13.870;2022-09-25T11:18:04;11.82;;;7.63;;
69150;SDS011;56257;52.196;13.870;2022-09-25T11:20:31;9.20;;;7.03;;
69150;SDS011;56257;52.196;13.870;2022-09-25T11:32:06;9.43;;;7.57;;
69150;SDS011;56257;52.196;13.870;2022-09-25T11:34:13;8.88;;;6.43;;
69150;SDS011;56257;52.196;13.870;2022-09-25T11:36:57;9.70;;;7.45;;
69150;SDS011;56257;52.196;13.870;2022-09-25T11:39:30;11.00;;;7.27;;
69150;SDS011;56257;52.196;13.870;2022-09-25T11:42:24;10.98;;;7.43;;
69150;SDS011;56257;52.196;13.870;2022-09-25T11:45:13;10.63;;;7.10;;
69150;SDS011;56257;52.196;13.870;2022-09-25T11:47:50;10.70;;;6.97;;
69150;SDS011;56257;52.196;13.870;2022-09-25T11:50:23;10.95;;;7.47;;
69150;SDS011;56257;52.196;13.870;2022-09-25T11:55:39;10.05;;;7.25;;
69150;SDS011;56257;52.196;13.870;2022-09-25T11:58:24;9.77;;;7.45;;
69150;SDS011;56257;52.196;13.870;2022-09-25T12:09:53;10.07;;;7.43;;
69150;SDS011;56257;52.196;13.870;2022-09-25T12:20:50;9.77;;;7.10;;
69150;SDS011;56257;52.196;13.870;2022-09-25T12:23:33;8.85;;;7.05;;
69150;SDS011;56257;52.196;13.870;2022-09-25T12:26:33;10.15;;;7.43;;
69150;SDS011;56257;52.196;13.870;2022-09-25T12:34:52;10.30;;;7.30;;
69150;SDS011;56257;52.196;13.870;2022-09-25T12:46:08;12.95;;;7.75;;
69150;SDS011;56257;52.196;13.870;2022-09-25T12:48:44;9.57;;;7.20;;
69150;SDS011;56257;52.196;13.870;2022-09-25T12:51:37;11.00;;;6.68;;
69150;SDS011;56257;52.196;13.870;2022-09-25T12:54:12;9.35;;;7.35;;
69150;SDS011;56257;52.196;13.870;2022-09-25T12:57:03;9.05;;;6.82;;
69150;SDS011;56257;52.196;13.870;2022-09-25T12:59:40;8.30;;;6.45;;
69150;SDS011;56257;52.196;13.870;2022-09-25T13:02:17;8.80;;;6.83;;
69150;SDS011;56257;52.196;13.870;2022-09-25T13:04:53;10.32;;;6.97;;
69150;SDS011;56257;52.196;13.870;2022-09-25T13:07:47;10.48;;;6.50;;
69150;SDS011;56257;52.196;13.870;2022-09-25T13:12:51;8.43;;;6.38;;
69150;SDS011;56257;52.196;13.870;2022-09-25T13:15:21;9.23;;;6.50;;
69150;SDS011;56257;52.196;13.870;2022-09-25T13:17:50;8.65;;;6.03;;
69150;SDS011;56257;52.196;13.870;2022-09-25T13:22:58;8.80;;;5.85;;
69150;SDS011;56257;52.196;13.870;2022-09-25T13:25:28;7.70;;;5.70;;
69150;SDS011;56257;52.196;13.870;2022-09-25T13:27:56;8.60;;;5.97;;
69150;SDS011;56257;52.196;13.870;2022-09-25T13:30:31;8.23;;;5.60;;
69150;SDS011;56257;52.196;13.870;2022-09-25T13:32:58;9.52;;;5.80;;
69150;SDS011;56257;52.196;13.870;2022-09-25T13:35:29;8.27;;;5.95;;
69150;SDS011;56257;52.196;13.870;2022-09-25T13:38:16;7.45;;;5.28;;
69150;SDS011;56257;52.196;13.870;2022-09-25T13:41:10;7.47;;;5.70;;
69150;SDS011;56257;52.196;13.870;2022-09-25T13:43:38;8.20;;;5.43;;
69150;SDS011;56257;52.196;13.870;2022-09-25T13:48:49;7.32;;;5.25;;
69150;SDS011;56257;52.196;13.870;2022-09-25T13:56:14;7.15;;;5.28;;
69150;SDS011;56257;52.196;13.870;2022-09-25T13:59:18;7.53;;;4.93;;
69150;SDS011;56257;52.196;13.870;2022-09-25T14:01:56;8.27;;;4.97;;
69150;SDS011;56257;52.196;13.870;2022-09-25T14:04:29;7.07;;;5.20;;
69150;SDS011;56257;52.196;13.870;2022-09-25T14:07:05;7.17;;;5.33;;
69150;SDS011;56257;52.196;13.870;2022-09-25T14:09:53;6.85;;;4.80;;
69150;SDS011;56257;52.196;13.870;2022-09-25T14:12:29;7.10;;;4.75;;
69150;SDS011;56257;52.196;13.870;2022-09-25T14:15:35;7.07;;;4.63;;
69150;SDS011;56257;52.196;13.870;2022-09-25T14:17:56;7.28;;;4.68;;
69150;SDS011;56257;52.196;13.870;2022-09-25T14:20:36;6.97;;;4.70;;
69150;SDS011;56257;52.196;13.870;2022-09-25T14:26:26;7.30;;;4.68;;
69150;SDS011;56257;52.196;13.870;2022-09-25T14:28:50;6.45;;;4.30;;
69150;SDS011;56257;52.196;13.870;2022-09-25T14:39:22;6.60;;;4.15;;
69150;SDS011;56257;52.196;13.870;2022-09-25T14:47:29;6.80;;;4.40;;
69150;SDS011;56257;52.196;13.870;2022-09-25T14:49:59;5.50;;;3.70;;
69150;SDS011;56257;52.196;13.870;2022-09-25T14:52:26;7.00;;;4.20;;
69150;SDS011;56257;52.196;13.870;2022-09-25T14:54:55;6.53;;;4.28;;
69150;SDS011;56257;52.196;13.870;2022-09-25T14:57:23;6.82;;;4.18;;
69150;SDS011;56257;52.196;13.870;2022-09-25T14:59:53;7.00;;;4.30;;
69150;SDS011;56257;52.196;13.870;2022-09-25T15:07:54;7.13;;;4.20;;
69150;SDS011;56257;52.196;13.870;2022-09-25T15:10:25;6.55;;;4.25;;
69150;SDS011;56257;52.196;13.870;2022-09-25T15:15:35;6.25;;;3.83;;
69150;SDS011;56257;52.196;13.870;2022-09-25T15:18:03;6.53;;;3.97;;
69150;SDS011;56257;52.196;13.870;2022-09-25T15:20:30;5.97;;;3.83;;
69150;SDS011;56257;52.196;13.870;2022-09-25T15:25:33;6.60;;;4.20;;
69150;SDS011;56257;52.196;13.870;2022-09-25T15:28:06;7.05;;;3.85;;
69150;SDS011;56257;52.196;13.870;2022-09-25T15:30:35;6.55;;;3.88;;
69150;SDS011;56257;52.196;13.870;2022-09-25T15:33:02;7.15;;;4.13;;
69150;SDS011;56257;52.196;13.870;2022-09-25T15:35:29;5.75;;;3.78;;
69150;SDS011;56257;52.196;13.870;2022-09-25T15:38:01;6.60;;;4.13;;
69150;SDS011;56257;52.196;13.870;2022-09-25T15:40:30;5.90;;;3.85;;
69150;SDS011;56257;52.196;13.870;2022-09-25T15:42:58;6.30;;;4.15;;
69150;SDS011;56257;52.196;13.870;2022-09-25T15:47:58;6.22;;;4.07;;
69150;SDS011;56257;52.196;13.870;2022-09-25T15:50:26;5.70;;;3.63;;
69150;SDS011;56257;52.196;13.870;2022-09-25T15:52:57;6.07;;;3.72;;
69150;SDS011;56257;52.196;13.870;2022-09-25T15:55:25;9.40;;;4.10;;
69150;SDS011;56257;52.196;13.870;2022-09-25T15:57:54;6.00;;;3.90;;
69150;SDS011;56257;52.196;13.870;2022-09-25T16:00:24;6.47;;;4.22;;
69150;SDS011;56257;52.196;13.870;2022-09-25T16:03:13;7.27;;;4.37;;
69150;SDS011;56257;52.196;13.870;2022-09-25T16:06:01;5.85;;;3.80;;
69150;SDS011;56257;52.196;13.870;2022-09-25T16:08:30;7.30;;;4.10;;
69150;SDS011;56257;52.196;13.870;2022-09-25T16:13:39;6.60;;;3.85;;
69150;SDS011;56257;52.196;13.870;2022-09-25T16:16:27;7.00;;;4.20;;
69150;SDS011;56257;52.196;13.870;2022-09-25T16:18:56;6.32;;;3.75;;
69150;SDS011;56257;52.196;13.870;2022-09-25T16:21:46;7.65;;;4.00;;
69150;SDS011;56257;52.196;13.870;2022-09-25T16:24:18;6.65;;;4.10;;
69150;SDS011;56257;52.196;13.870;2022-09-25T16:26:52;6.80;;;4.20;;
69150;SDS011;56257;52.196;13.870;2022-09-25T16:29:29;5.83;;;3.70;;
69150;SDS011;56257;52.196;13.870;2022-09-25T16:32:04;6.88;;;4.32;;
69150;SDS011;56257;52.196;13.870;2022-09-25T16:34:33;6.35;;;3.90;;
69150;SDS011;56257;52.196;13.870;2022-09-25T16:37:02;5.97;;;3.95;;
69150;SDS011;56257;52.196;13.870;2022-09-25T16:39:34;6.57;;;3.92;;
69150;SDS011;56257;52.196;13.870;2022-09-25T16:45:17;6.38;;;4.18;;
69150;SDS011;56257;52.196;13.870;2022-09-25T16:47:49;6.03;;;3.75;;
69150;SDS011;56257;52.196;13.870;2022-09-25T16:50:17;7.22;;;4.47;;
69150;SDS011;56257;52.196;13.870;2022-09-25T16:52:45;7.07;;;4.22;;
69150;SDS011;56257;52.196;13.870;2022-09-25T16:55:25;6.07;;;3.73;;
69150;SDS011;56257;52.196;13.870;2022-09-25T16:57:54;7.07;;;4.93;;
69150;SDS011;56257;52.196;13.870;2022-09-25T17:00:22;6.50;;;4.18;;
69150;SDS011;56257;52.196;13.870;2022-09-25T17:02:51;7.13;;;4.43;;
69150;SDS011;56257;52.196;13.870;2022-09-25T17:05:19;6.50;;;4.50;;
69150;SDS011;56257;52.196;13.870;2022-09-25T17:07:49;6.90;;;4.47;;
69150;SDS011;56257;52.196;13.870;2022-09-25T17:10:18;6.45;;;3.92;;
69150;SDS011;56257;52.196;13.870;2022-09-25T17:12:47;7.85;;;4.40;;
69150;SDS011;56257;52.196;13.870;2022-09-25T17:15:26;6.57;;;4.20;;
69150;SDS011;56257;52.196;13.870;2022-09-25T17:17:58;8.65;;;4.80;;
69150;SDS011;56257;52.196;13.870;2022-09-25T17:20:26;8.53;;;4.43;;
69150;SDS011;56257;52.196;13.870;2022-09-25T17:22:54;7.22;;;4.53;;
69150;SDS011;56257;52.196;13.870;2022-09-25T17:25:28;6.65;;;4.40;;
69150;SDS011;56257;52.196;13.870;2022-09-25T17:28:02;7.40;;;4.50;;
69150;SDS011;56257;52.196;13.870;2022-09-25T17:30:30;8.68;;;4.97;;
69150;SDS011;56257;52.196;13.870;2022-09-25T17:32:57;8.13;;;4.60;;
69150;SDS011;56257;52.196;13.870;2022-09-25T17:35:29;7.20;;;4.68;;
69150;SDS011;56257;52.196;13.870;2022-09-25T17:37:59;7.18;;;4.45;;
69150;SDS011;56257;52.196;13.870;2022-09-25T17:40:27;7.18;;;4.82;;
69150;SDS011;56257;52.196;13.870;2022-09-25T17:42:55;7.43;;;4.55;;
69150;SDS011;56257;52.196;13.870;2022-09-25T17:45:30;6.80;;;4.70;;
69150;SDS011;56257;52.196;13.870;2022-09-25T17:48:00;8.43;;;5.13;;